Time;durP1;ratioP1;P1;durP2;ratioP2;P2;SDS_P1;SDS_P2;PMS_P1;PMS_P2;Temp;Humidity;BMP_temperature;BMP_pressure;BME280_temperature;BME280_humidity;BME280_pressure;Samples;Min_cycle;Max_cycle;Signal;HPM_P1;HPM_P2
2023/03/02 00:00:44;;;;;;;91.30;39.53;;;0.30;99.90;;;;;;5037559;28;20104;-75
2023/03/02 00:03:10;;;;;;;91.23;39.10;;;0.30;99.90;;;;;;5036152;28;20217;-75
2023/03/02 00:05:37;;;;;;;52.40;26.83;;;0.30;99.90;;;;;;5036368;28;20024;-76
2023/03/02 00:08:03;;;;;;;78.30;35.00;;;0.30;99.90;;;;;;5036304;28;20037;-75
2023/03/02 00:10:30;;;;;;;167.33;72.60;;;0.30;99.90;;;;;;5035292;28;20029;-75
2023/03/02 00:12:57;;;;;;;71.70;35.27;;;0.30;99.90;;;;;;5032808;28;20394;-76
2023/03/02 00:15:23;;;;;;;87.67;43.80;;;0.30;99.90;;;;;;5036121;28;20032;-76
2023/03/02 00:17:48;;;;;;;52.93;29.90;;;0.30;99.90;;;;;;5033087;28;20730;-75
2023/03/02 00:20:14;;;;;;;46.00;27.17;;;0.20;99.90;;;;;;5038015;28;20024;-75
2023/03/02 00:22:44;;;;;;;48.33;25.97;;;0.20;99.90;;;;;;5035590;28;20034;-75
2023/03/02 00:25:12;;;;;;;43.20;23.83;;;0.20;99.90;;;;;;5035089;28;20390;-76
2023/03/02 00:27:38;;;;;;;43.80;24.37;;;0.20;99.90;;;;;;5050869;28;20083;-75
2023/03/02 00:30:04;;;;;;;43.33;24.17;;;0.20;99.90;;;;;;5035794;28;20049;-75
2023/03/02 00:32:30;;;;;;;42.80;22.70;;;0.20;99.90;;;;;;5035319;28;20033;-75
2023/03/02 00:34:57;;;;;;;37.77;22.33;;;0.20;99.90;;;;;;5035214;28;20021;-75
2023/03/02 00:37:24;;;;;;;37.83;22.00;;;0.20;99.90;;;;;;5036527;28;20078;-75
2023/03/02 00:39:50;;;;;;;44.07;23.40;;;0.20;99.90;;;;;;5033915;28;20021;-75
2023/03/02 00:42:16;;;;;;;40.97;23.17;;;0.20;99.90;;;;;;5034962;28;20024;-75
2023/03/02 00:44:42;;;;;;;36.97;22.90;;;0.20;99.90;;;;;;5041061;28;20021;-75
2023/03/02 00:47:07;;;;;;;40.57;23.80;;;0.20;99.90;;;;;;5041852;28;20059;-75
2023/03/02 00:49:33;;;;;;;41.57;23.50;;;0.20;99.90;;;;;;5039669;28;20032;-75
2023/03/02 00:51:59;;;;;;;40.67;22.73;;;0.10;99.90;;;;;;5037682;28;20117;-75
2023/03/02 00:54:25;;;;;;;39.73;23.33;;;0.10;99.90;;;;;;5041017;28;20033;-75
2023/03/02 00:56:50;;;;;;;40.60;23.30;;;0.10;99.90;;;;;;5039649;28;20071;-76
2023/03/02 00:59:29;;;;;;;41.07;23.63;;;0.10;99.90;;;;;;5037418;28;20458;-75
2023/03/02 01:01:58;;;;;;;45.87;23.63;;;0.10;99.90;;;;;;5040517;28;20030;-75
2023/03/02 01:04:30;;;;;;;47.13;25.23;;;0.10;99.90;;;;;;5038572;28;20033;-75
2023/03/02 01:07:02;;;;;;;38.80;23.30;;;0.10;99.90;;;;;;5037388;28;20025;-75
2023/03/02 01:09:28;;;;;;;45.23;24.87;;;0.10;99.90;;;;;;5039048;28;20059;-75
2023/03/02 01:11:54;;;;;;;43.03;24.43;;;0.00;99.90;;;;;;5040581;28;20167;-75
2023/03/02 01:14:20;;;;;;;45.53;24.97;;;0.00;99.90;;;;;;5039455;28;20133;-75
2023/03/02 01:16:46;;;;;;;46.70;25.23;;;0.00;99.90;;;;;;5040184;28;20025;-75
2023/03/02 01:19:13;;;;;;;42.03;23.80;;;0.00;99.90;;;;;;5038388;28;20017;-75
2023/03/02 01:21:38;;;;;;;47.40;26.20;;;-0.10;99.90;;;;;;5039484;28;20378;-75
2023/03/02 01:24:04;;;;;;;48.57;25.53;;;-0.10;99.90;;;;;;5039931;28;20033;-75
2023/03/02 01:26:30;;;;;;;45.00;26.10;;;-0.10;99.90;;;;;;5037382;28;20033;-75
2023/03/02 01:28:56;;;;;;;46.20;25.43;;;-0.10;99.90;;;;;;5039585;28;20033;-75
2023/03/02 01:31:22;;;;;;;46.13;24.77;;;-0.10;99.90;;;;;;5039602;28;20166;-75
2023/03/02 01:33:47;;;;;;;46.40;25.90;;;-0.10;99.90;;;;;;5039363;28;20382;-75
2023/03/02 01:36:13;;;;;;;45.50;25.43;;;-0.10;99.90;;;;;;5036546;28;20033;-75
2023/03/02 01:38:39;;;;;;;46.33;26.13;;;-0.10;99.90;;;;;;5038496;28;20036;-75
2023/03/02 01:41:04;;;;;;;48.03;25.47;;;-0.20;99.90;;;;;;5036140;28;20022;-75
2023/03/02 01:43:30;;;;;;;44.50;24.30;;;-0.20;99.90;;;;;;5040256;28;20021;-75
2023/03/02 01:45:59;;;;;;;48.90;26.77;;;-0.20;99.90;;;;;;5038715;28;20393;-75
2023/03/02 01:48:45;;;;;;;45.93;25.37;;;-0.20;99.90;;;;;;5038244;28;20064;-75
2023/03/02 01:51:15;;;;;;;49.77;25.60;;;-0.30;99.90;;;;;;5038517;28;20025;-75
2023/03/02 01:53:45;;;;;;;45.60;25.33;;;-0.30;99.90;;;;;;5038375;28;20074;-75
2023/03/02 01:56:17;;;;;;;45.33;24.73;;;-0.30;99.90;;;;;;5038161;28;20365;-75
2023/03/02 01:58:44;;;;;;;44.33;24.37;;;-0.30;99.90;;;;;;5038791;28;20382;-75
2023/03/02 02:01:14;;;;;;;44.53;25.63;;;-0.40;99.90;;;;;;5037507;28;20022;-75
2023/03/02 02:03:42;;;;;;;50.33;26.83;;;-0.40;99.90;;;;;;5040032;28;20029;-75
2023/03/02 02:06:16;;;;;;;45.13;25.20;;;-0.40;99.90;;;;;;5037224;28;20060;-75
2023/03/02 02:08:43;;;;;;;42.50;22.97;;;-0.40;99.90;;;;;;5038573;28;20021;-75
2023/03/02 02:11:09;;;;;;;43.80;24.77;;;-0.40;99.90;;;;;;5036156;28;20091;-75
2023/03/02 02:13:34;;;;;;;43.93;24.63;;;-0.50;99.90;;;;;;5037807;28;20021;-75
2023/03/02 02:16:00;;;;;;;47.17;24.87;;;-0.50;99.90;;;;;;5038800;28;20065;-75
2023/03/02 02:18:26;;;;;;;43.03;23.93;;;-0.50;99.90;;;;;;5038870;28;20026;-75
2023/03/02 02:20:54;;;;;;;42.23;23.77;;;-0.60;99.90;;;;;;5037248;28;20079;-75
2023/03/02 02:23:25;;;;;;;44.33;25.47;;;-0.60;99.90;;;;;;5037876;28;20037;-75
2023/03/02 02:25:54;;;;;;;42.80;25.10;;;-0.60;99.90;;;;;;5036183;28;20021;-75
2023/03/02 02:28:34;;;;;;;47.77;25.90;;;-0.60;99.90;;;;;;5039690;28;20029;-75
2023/03/02 02:31:12;;;;;;;44.80;24.37;;;-0.70;99.90;;;;;;5037543;28;20025;-75
2023/03/02 02:33:40;;;;;;;41.67;23.77;;;-0.70;99.90;;;;;;5040696;28;20095;-75
2023/03/02 02:36:13;;;;;;;45.00;24.13;;;-0.70;99.90;;;;;;5037142;28;20034;-75
2023/03/02 02:38:39;;;;;;;44.03;24.77;;;-0.70;99.90;;;;;;5036513;28;20026;-75
2023/03/02 02:41:10;;;;;;;48.20;25.63;;;-0.70;99.90;;;;;;5034543;28;20996;-75
2023/03/02 02:43:36;;;;;;;45.87;23.33;;;-0.70;99.90;;;;;;5038089;28;20144;-75
2023/03/02 02:46:02;;;;;;;45.30;25.40;;;-0.70;99.90;;;;;;5036177;28;20430;-75
2023/03/02 02:48:30;;;;;;;42.30;24.03;;;-0.70;99.90;;;;;;5039309;28;20116;-75
2023/03/02 02:51:01;;;;;;;44.03;23.63;;;-0.70;99.90;;;;;;5037792;28;20076;-75
2023/03/02 02:53:34;;;;;;;43.10;24.33;;;-0.70;99.90;;;;;;5035973;28;20021;-75
2023/03/02 02:56:01;;;;;;;41.70;23.07;;;-0.70;99.90;;;;;;5038917;28;20043;-75
2023/03/02 02:58:34;;;;;;;45.53;24.43;;;-0.80;99.90;;;;;;5038365;28;20108;-75
2023/03/02 03:01:00;;;;;;;40.23;23.73;;;-0.80;99.90;;;;;;5038262;28;20021;-75
2023/03/02 03:03:35;;;;;;;40.80;23.57;;;-0.80;99.90;;;;;;5036488;28;20033;-75
2023/03/02 03:06:04;;;;;;;36.67;22.35;;;-0.80;99.90;;;;;;5035901;28;20028;-75
2023/03/02 03:08:45;;;;;;;39.90;23.13;;;-0.80;99.90;;;;;;5035571;28;20036;-75
2023/03/02 03:11:14;;;;;;;41.27;22.73;;;-0.80;99.90;;;;;;5037822;28;20112;-75
2023/03/02 03:13:42;;;;;;;44.83;23.70;;;-0.80;99.90;;;;;;5038133;28;20025;-75
2023/03/02 03:16:12;;;;;;;43.00;25.20;;;-0.70;99.90;;;;;;5036235;28;20032;-75
2023/03/02 03:18:42;;;;;;;38.20;23.70;;;-0.70;99.90;;;;;;5037121;28;20014;-75
2023/03/02 03:21:07;;;;;;;41.20;23.90;;;-0.70;99.90;;;;;;5037528;28;20021;-75
2023/03/02 03:23:37;;;;;;;41.40;22.73;;;-0.70;99.90;;;;;;5037890;28;20463;-75
2023/03/02 03:26:05;;;;;;;37.43;22.80;;;-0.70;99.90;;;;;;5036400;28;20081;-75
2023/03/02 03:28:32;;;;;;;41.33;23.23;;;-0.70;99.90;;;;;;5038942;28;20021;-75
2023/03/02 03:30:58;;;;;;;44.37;23.97;;;-0.70;99.90;;;;;;5036184;28;20026;-75
2023/03/02 03:33:24;;;;;;;43.00;24.37;;;-0.70;99.90;;;;;;5036108;28;20367;-75
2023/03/02 03:35:49;;;;;;;43.67;24.10;;;-0.70;99.90;;;;;;5034938;28;20107;-75
2023/03/02 03:38:16;;;;;;;39.17;22.17;;;-0.80;99.90;;;;;;5039796;28;20025;-75
2023/03/02 03:40:41;;;;;;;41.97;23.37;;;-0.70;99.90;;;;;;5039129;28;20025;-75
2023/03/02 03:43:08;;;;;;;45.73;23.50;;;-0.80;99.90;;;;;;5038325;28;20398;-76
2023/03/02 03:45:33;;;;;;;45.07;23.57;;;-0.80;99.90;;;;;;5038163;28;20021;-75
2023/03/02 03:47:59;;;;;;;40.57;23.23;;;-0.80;99.90;;;;;;5037000;28;20054;-75
2023/03/02 03:50:24;;;;;;;46.17;23.97;;;-0.80;99.90;;;;;;5037909;28;20160;-75
2023/03/02 03:52:50;;;;;;;45.33;24.53;;;-0.80;99.90;;;;;;5038728;28;20075;-75
2023/03/02 03:55:16;;;;;;;42.73;25.17;;;-0.80;99.90;;;;;;5038298;28;20033;-75
2023/03/02 03:57:42;;;;;;;43.07;23.47;;;-0.80;99.90;;;;;;5038792;28;20022;-75
2023/03/02 04:00:13;;;;;;;44.37;23.60;;;-0.90;99.90;;;;;;5039146;28;20355;-75
2023/03/02 04:02:39;;;;;;;42.40;23.33;;;-0.90;99.90;;;;;;5034934;28;20025;-75
2023/03/02 04:05:06;;;;;;;40.97;24.03;;;-0.90;99.90;;;;;;5036709;28;20041;-75
2023/03/02 04:07:33;;;;;;;37.03;23.57;;;-0.90;99.90;;;;;;5034240;28;20056;-76
2023/03/02 04:10:02;;;;;;;47.67;24.67;;;-0.90;99.90;;;;;;5035018;28;20029;-75
2023/03/02 04:12:29;;;;;;;43.47;24.47;;;-0.90;99.90;;;;;;5033497;28;20090;-75
2023/03/02 04:14:54;;;;;;;41.33;25.23;;;-0.90;99.90;;;;;;5035599;28;20489;-75
2023/03/02 04:17:20;;;;;;;44.33;23.93;;;-1.00;99.90;;;;;;5034827;28;20041;-75
2023/03/02 04:19:45;;;;;;;43.40;24.93;;;-0.90;99.90;;;;;;5035497;28;20059;-75
2023/03/02 04:22:11;;;;;;;49.00;25.93;;;-0.90;99.90;;;;;;5037100;28;20025;-75
2023/03/02 04:24:37;;;;;;;41.67;23.80;;;-1.00;99.90;;;;;;5036145;28;20029;-75
2023/03/02 04:27:03;;;;;;;43.57;24.77;;;-1.00;99.90;;;;;;5034661;28;20092;-75
2023/03/02 04:29:28;;;;;;;45.53;24.80;;;-1.00;99.90;;;;;;5037305;28;20503;-75
2023/03/02 04:31:54;;;;;;;46.53;25.60;;;-1.00;99.90;;;;;;5037133;28;20039;-75
2023/03/02 04:34:20;;;;;;;44.00;25.43;;;-1.00;99.90;;;;;;5033679;28;20025;-75
2023/03/02 04:36:46;;;;;;;49.60;25.40;;;-1.00;99.90;;;;;;5033146;28;20017;-75
2023/03/02 04:39:14;;;;;;;43.80;25.80;;;-1.00;99.90;;;;;;5031277;28;20620;-75
2023/03/02 04:41:39;;;;;;;44.37;25.60;;;-1.00;99.90;;;;;;5034268;28;20045;-75
2023/03/02 04:44:05;;;;;;;43.83;24.63;;;-1.10;99.90;;;;;;5033080;28;20053;-76
2023/03/02 04:46:31;;;;;;;47.43;26.63;;;-1.00;99.90;;;;;;5034379;28;20037;-76
2023/03/02 04:48:57;;;;;;;47.17;26.47;;;-1.10;99.90;;;;;;5035338;28;20017;-75
2023/03/02 04:51:27;;;;;;;46.10;25.53;;;-1.10;99.90;;;;;;5035138;28;20048;-76
2023/03/02 04:53:55;;;;;;;42.83;23.43;;;-1.10;99.90;;;;;;5033651;28;20538;-75
2023/03/02 04:56:21;;;;;;;47.97;26.47;;;-1.10;99.90;;;;;;5034924;28;20116;-76
2023/03/02 04:58:47;;;;;;;47.10;26.77;;;-1.20;99.90;;;;;;5033798;28;20017;-76
2023/03/02 05:01:13;;;;;;;45.87;26.53;;;-1.20;99.90;;;;;;5033099;28;20382;-76
2023/03/02 05:03:39;;;;;;;48.60;25.90;;;-1.20;99.90;;;;;;5033588;28;20531;-76
2023/03/02 05:06:05;;;;;;;46.23;25.67;;;-1.20;99.90;;;;;;5036267;28;20028;-76
2023/03/02 05:08:31;;;;;;;51.40;23.70;;;-1.20;99.90;;;;;;5034188;28;20100;-76
2023/03/02 05:10:57;;;;;;;44.13;25.67;;;-1.30;99.90;;;;;;5032914;28;20082;-75
2023/03/02 05:13:23;;;;;;;44.23;24.50;;;-1.30;99.90;;;;;;5030988;28;20076;-75
2023/03/02 05:15:50;;;;;;;44.13;24.77;;;-1.30;99.90;;;;;;5033232;28;20112;-75
2023/03/02 05:18:16;;;;;;;47.60;24.47;;;-1.30;99.90;;;;;;5032775;28;20410;-76
2023/03/02 05:20:41;;;;;;;44.53;24.70;;;-1.40;99.90;;;;;;5033869;28;20025;-75
2023/03/02 05:23:09;;;;;;;46.10;25.63;;;-1.40;99.90;;;;;;5033627;28;20104;-76
2023/03/02 05:25:36;;;;;;;48.03;25.87;;;-1.40;99.90;;;;;;5032783;28;20399;-76
2023/03/02 05:28:03;;;;;;;46.53;25.87;;;-1.40;99.90;;;;;;5033713;28;20024;-76
2023/03/02 05:30:31;;;;;;;44.13;25.27;;;-1.50;99.90;;;;;;5026504;28;20025;-75
2023/03/02 05:32:57;;;;;;;44.63;25.60;;;-1.50;99.90;;;;;;5037551;28;20025;-76
2023/03/02 05:35:23;;;;;;;50.23;25.53;;;-1.50;99.90;;;;;;5030898;28;20017;-75
2023/03/02 05:37:49;;;;;;;46.30;26.27;;;-1.60;99.90;;;;;;5032244;28;20028;-76
2023/03/02 05:40:18;;;;;;;46.13;25.97;;;-1.60;99.90;;;;;;5035478;28;20028;-76
2023/03/02 05:42:44;;;;;;;44.60;26.00;;;-1.60;99.90;;;;;;5036828;28;20028;-76
2023/03/02 05:45:19;;;;;;;46.67;25.40;;;-1.60;99.90;;;;;;5038121;28;20033;-76
2023/03/02 05:47:45;;;;;;;47.47;26.80;;;-1.60;99.90;;;;;;5034883;28;20409;-76
2023/03/02 05:50:10;;;;;;;51.33;27.10;;;-1.60;99.90;;;;;;5033920;28;20125;-75
2023/03/02 05:52:36;;;;;;;45.80;26.87;;;-1.60;99.90;;;;;;5035812;28;20021;-76
2023/03/02 05:55:01;;;;;;;48.57;26.63;;;-1.60;99.90;;;;;;5035165;28;20063;-75
2023/03/02 05:57:27;;;;;;;56.83;29.63;;;-1.70;99.90;;;;;;5035808;28;20029;-75
2023/03/02 05:59:55;;;;;;;52.70;28.77;;;-1.70;99.90;;;;;;5032497;28;20090;-75
2023/03/02 06:02:20;;;;;;;52.20;28.67;;;-1.60;99.90;;;;;;5024319;28;20033;-75
2023/03/02 06:04:46;;;;;;;49.57;28.60;;;-1.60;99.90;;;;;;5031913;28;20091;-75
2023/03/02 06:07:12;;;;;;;52.43;27.23;;;-1.70;99.90;;;;;;5037861;28;20029;-75
2023/03/02 06:09:38;;;;;;;50.00;28.30;;;-1.70;99.90;;;;;;5033276;28;20025;-75
2023/03/02 06:12:05;;;;;;;50.37;27.87;;;-1.60;99.90;;;;;;5028900;28;20037;-75
2023/03/02 06:14:31;;;;;;;49.50;27.27;;;-1.60;99.90;;;;;;5030570;28;20038;-75
2023/03/02 06:16:57;;;;;;;49.50;27.73;;;-1.60;99.90;;;;;;5029548;28;20108;-75
2023/03/02 06:19:22;;;;;;;51.30;26.73;;;-1.60;99.90;;;;;;5029205;28;20437;-75
2023/03/02 06:21:48;;;;;;;45.23;26.80;;;-1.60;99.90;;;;;;5032802;28;20036;-75
2023/03/02 06:24:13;;;;;;;52.67;27.10;;;-1.60;99.90;;;;;;5030538;28;20097;-75
2023/03/02 06:26:39;;;;;;;52.20;26.90;;;-1.60;99.90;;;;;;5030041;28;20037;-75
2023/03/02 06:29:06;;;;;;;50.43;27.67;;;-1.50;99.90;;;;;;5033093;28;20044;-73
2023/03/02 06:31:35;;;;;;;58.20;29.10;;;-1.50;99.90;;;;;;5032277;28;20530;-74
2023/03/02 06:34:01;;;;;;;50.00;27.80;;;-1.50;99.90;;;;;;5025440;28;20036;-73
2023/03/02 06:36:27;;;;;;;52.00;29.53;;;-1.50;99.90;;;;;;5030024;28;20082;-73
2023/03/02 06:38:53;;;;;;;47.03;27.43;;;-1.50;99.90;;;;;;5032907;28;20410;-73
2023/03/02 06:41:19;;;;;;;46.80;27.33;;;-1.40;99.90;;;;;;5030483;28;20128;-73
2023/03/02 06:43:44;;;;;;;48.40;28.07;;;-1.40;99.90;;;;;;5030667;28;20049;-73
2023/03/02 06:46:10;;;;;;;51.10;28.13;;;-1.30;99.90;;;;;;5033163;28;20120;-73
2023/03/02 06:48:36;;;;;;;55.87;28.17;;;-1.30;99.90;;;;;;5034348;28;20041;-73
2023/03/02 06:51:02;;;;;;;49.00;27.00;;;-1.20;99.90;;;;;;5033650;28;20041;-73
2023/03/02 06:53:27;;;;;;;48.23;28.57;;;-1.20;99.90;;;;;;5027489;28;20366;-73
2023/03/02 06:55:53;;;;;;;47.70;27.97;;;-1.20;99.90;;;;;;5020490;28;20065;-73
2023/03/02 06:58:19;;;;;;;49.17;26.73;;;-1.10;99.90;;;;;;5021003;28;20041;-73
2023/03/02 07:00:45;;;;;;;48.27;28.10;;;-1.00;99.90;;;;;;5019337;28;20067;-73
2023/03/02 07:03:11;;;;;;;51.93;28.53;;;-1.00;99.90;;;;;;5025462;28;20034;-73
2023/03/02 07:05:36;;;;;;;48.30;28.50;;;-0.90;99.90;;;;;;5022342;28;20048;-75
2023/03/02 07:08:02;;;;;;;50.83;28.13;;;-0.90;99.90;;;;;;5018943;28;20674;-75
2023/03/02 07:10:28;;;;;;;47.17;28.67;;;-0.80;99.90;;;;;;5023382;28;20042;-75
2023/03/02 07:12:54;;;;;;;43.40;25.67;;;-0.70;99.90;;;;;;5022905;28;20033;-75
2023/03/02 07:15:20;;;;;;;46.83;25.77;;;-0.70;99.90;;;;;;5019825;28;20152;-73
2023/03/02 07:17:46;;;;;;;46.50;26.37;;;-0.60;99.90;;;;;;5022129;28;20370;-73
2023/03/02 07:20:14;;;;;;;49.07;26.53;;;-0.50;99.90;;;;;;5021174;28;20034;-73
2023/03/02 07:22:41;;;;;;;50.93;26.13;;;-0.50;99.90;;;;;;5024199;28;20478;-73
2023/03/02 07:25:08;;;;;;;43.73;26.43;;;-0.40;99.90;;;;;;5024633;28;20032;-73
2023/03/02 07:27:33;;;;;;;50.23;27.20;;;-0.30;99.90;;;;;;5023135;28;20056;-73
2023/03/02 07:29:59;;;;;;;46.10;26.73;;;-0.20;99.90;;;;;;5024375;28;20628;-73
2023/03/02 07:32:24;;;;;;;47.27;27.10;;;-0.10;99.90;;;;;;5024251;28;20033;-75
2023/03/02 07:34:50;;;;;;;48.83;27.90;;;0.00;99.90;;;;;;5022688;28;20035;-73
2023/03/02 07:37:16;;;;;;;54.07;29.40;;;0.10;99.90;;;;;;5024005;28;20043;-73
2023/03/02 07:39:41;;;;;;;48.53;29.07;;;0.30;99.90;;;;;;5020011;28;20489;-73
2023/03/02 07:42:10;;;;;;;47.53;28.37;;;0.40;99.90;;;;;;5023038;28;20029;-73
2023/03/02 07:44:36;;;;;;;48.13;27.17;;;0.50;99.90;;;;;;5021725;28;20071;-73
2023/03/02 07:47:01;;;;;;;46.33;26.90;;;0.60;99.90;;;;;;5027515;28;20061;-73
2023/03/02 07:49:27;;;;;;;48.17;27.87;;;0.70;99.90;;;;;;5028304;28;20120;-73
2023/03/02 07:51:52;;;;;;;68.77;38.30;;;0.80;99.90;;;;;;5028920;28;20041;-73
2023/03/02 07:54:18;;;;;;;56.20;29.63;;;1.00;99.90;;;;;;5027356;28;20048;-73
2023/03/02 07:56:43;;;;;;;56.03;28.70;;;1.10;99.90;;;;;;5028452;28;20038;-73
2023/03/02 07:59:11;;;;;;;63.37;34.30;;;1.20;99.90;;;;;;5029150;28;20030;-74
2023/03/02 08:01:36;;;;;;;62.33;36.23;;;1.30;99.90;;;;;;5029422;28;20399;-73
2023/03/02 08:04:02;;;;;;;68.97;39.63;;;1.50;99.90;;;;;;5028455;28;20025;-73
2023/03/02 08:06:27;;;;;;;44.77;27.10;;;1.70;99.90;;;;;;5028490;28;20513;-73
2023/03/02 08:08:53;;;;;;;45.97;25.70;;;1.70;99.90;;;;;;5029759;28;21246;-73
2023/03/02 08:11:19;;;;;;;45.03;27.20;;;1.80;99.90;;;;;;5029947;28;20459;-73
2023/03/02 08:13:45;;;;;;;59.33;37.73;;;1.90;99.90;;;;;;5030041;28;20028;-73
2023/03/02 08:16:12;;;;;;;72.03;46.47;;;2.10;99.90;;;;;;5029527;28;20479;-73
2023/03/02 08:18:38;;;;;;;47.50;29.00;;;2.10;99.90;;;;;;5031464;28;20029;-73
2023/03/02 08:21:14;;;;;;;51.57;31.20;;;2.20;99.90;;;;;;5029715;28;20330;-73
2023/03/02 08:23:40;;;;;;;42.50;25.23;;;2.30;99.90;;;;;;5029346;28;20057;-73
2023/03/02 08:26:06;;;;;;;40.63;25.93;;;2.40;99.90;;;;;;5027160;28;20043;-73
2023/03/02 08:28:33;;;;;;;40.60;24.07;;;2.50;99.90;;;;;;5029355;28;20039;-73
2023/03/02 08:30:59;;;;;;;59.07;32.70;;;2.60;99.90;;;;;;5029535;28;20071;-73
2023/03/02 08:33:26;;;;;;;44.17;24.67;;;2.80;99.90;;;;;;5032644;28;20044;-73
2023/03/02 08:35:57;;;;;;;42.13;23.77;;;3.00;99.90;;;;;;5032838;28;20021;-73
2023/03/02 08:38:23;;;;;;;52.47;29.77;;;3.10;99.90;;;;;;5028306;28;20140;-74
2023/03/02 08:40:50;;;;;;;37.57;22.97;;;3.20;99.90;;;;;;5028653;28;20053;-73
2023/03/02 08:43:16;;;;;;;41.13;23.07;;;3.30;99.90;;;;;;5033007;28;20025;-74
2023/03/02 08:45:41;;;;;;;45.90;27.30;;;3.40;99.90;;;;;;5033912;28;20485;-74
2023/03/02 08:48:07;;;;;;;43.93;24.13;;;3.40;99.90;;;;;;5033245;28;20049;-74
2023/03/02 08:50:33;;;;;;;42.43;26.30;;;3.50;99.90;;;;;;5031235;28;20778;-74
2023/03/02 08:52:58;;;;;;;45.57;28.40;;;3.50;99.90;;;;;;5030440;28;20483;-74
2023/03/02 08:55:24;;;;;;;40.83;25.13;;;3.50;99.90;;;;;;5030901;28;21474;-74
2023/03/02 08:57:49;;;;;;;45.40;27.27;;;3.50;99.90;;;;;;5027712;28;20498;-74
2023/03/02 09:00:15;;;;;;;47.03;29.33;;;3.60;99.90;;;;;;5032442;28;20035;-74
2023/03/02 09:02:41;;;;;;;47.57;32.57;;;3.60;99.90;;;;;;5027487;28;20048;-74
2023/03/02 09:05:07;;;;;;;38.33;24.53;;;3.70;99.90;;;;;;5025473;28;21123;-74
2023/03/02 09:07:33;;;;;;;55.20;36.47;;;3.70;99.90;;;;;;5028760;28;20037;-74
2023/03/02 09:09:58;;;;;;;39.00;22.20;;;3.90;99.90;;;;;;5027771;28;20105;-74
2023/03/02 09:12:24;;;;;;;46.23;32.50;;;4.00;99.90;;;;;;5028549;28;20047;-74
2023/03/02 09:14:50;;;;;;;39.13;23.97;;;4.20;99.90;;;;;;5028032;28;20059;-74
2023/03/02 09:17:16;;;;;;;36.93;22.67;;;4.20;99.90;;;;;;5027848;28;20034;-74
2023/03/02 09:19:41;;;;;;;37.67;22.20;;;4.30;99.90;;;;;;5028778;28;20029;-74
2023/03/02 09:22:07;;;;;;;35.17;23.27;;;4.50;99.90;;;;;;5029548;28;20021;-74
2023/03/02 09:24:34;;;;;;;40.03;24.17;;;4.70;99.90;;;;;;5025975;28;20029;-74
2023/03/02 09:27:00;;;;;;;44.33;27.47;;;4.90;99.90;;;;;;5026733;28;20033;-75
2023/03/02 09:29:26;;;;;;;37.40;23.27;;;4.90;99.90;;;;;;5026106;28;20410;-74
2023/03/02 09:31:51;;;;;;;33.27;20.20;;;5.00;99.90;;;;;;5027894;28;20136;-74
2023/03/02 09:34:17;;;;;;;34.17;21.57;;;5.10;99.90;;;;;;5027017;28;20033;-74
2023/03/02 09:36:42;;;;;;;33.47;21.37;;;5.30;99.90;;;;;;5026443;28;20053;-74
2023/03/02 09:39:11;;;;;;;35.73;22.30;;;5.40;99.90;;;;;;5022610;28;20072;-75
2023/03/02 09:41:58;;;;;;;31.90;20.37;;;5.40;99.90;;;;;;5025479;28;20112;-75
2023/03/02 09:44:39;;;;;;;34.63;21.57;;;5.50;99.90;;;;;;5027198;28;20116;-76
2023/03/02 09:47:19;;;;;;;36.10;20.40;;;5.60;99.90;;;;;;5025564;28;20050;-75
2023/03/02 09:49:53;;;;;;;36.70;20.67;;;5.70;99.90;;;;;;5024033;28;20067;-76
2023/03/02 09:52:39;;;;;;;32.57;20.17;;;5.80;99.90;;;;;;5025684;28;20053;-76
2023/03/02 09:55:14;;;;;;;;;;;5.80;99.90;;;;;;5023477;28;20025;-76
2023/03/02 09:57:40;;;;;;;32.07;18.83;;;6.00;99.90;;;;;;5026677;28;19949;-76
2023/03/02 10:00:19;;;;;;;35.50;20.03;;;6.00;99.90;;;;;;5026637;28;20045;-76
2023/03/02 10:02:55;;;;;;;30.10;19.00;;;6.30;99.90;;;;;;5026417;28;20025;-76
2023/03/02 10:05:26;;;;;;;32.13;19.60;;;6.40;99.90;;;;;;5025017;28;20037;-76
2023/03/02 10:07:52;;;;;;;29.97;19.23;;;6.50;99.90;;;;;;5025622;28;20033;-76
2023/03/02 10:10:17;;;;;;;34.70;19.03;;;6.50;99.90;;;;;;5043443;28;20541;-76
2023/03/02 10:12:52;;;;;;;33.03;19.57;;;6.50;99.90;;;;;;5025598;28;20045;-76
2023/03/02 10:15:46;;;;;;;37.55;21.02;;;6.40;99.90;;;;;;5024646;28;20108;-76
2023/03/02 10:18:56;;;;;;;30.57;17.90;;;6.40;99.90;;;;;;5017521;28;20033;-76
2023/03/02 10:21:38;;;;;;;29.57;17.27;;;6.50;99.90;;;;;;5025177;28;20517;-76
2023/03/02 10:24:14;;;;;;;37.10;20.47;;;6.70;99.90;;;;;;5024838;28;20460;-76
2023/03/02 10:26:41;;;;;;;;;;;6.80;99.90;;;;;;5023518;28;20462;-76
2023/03/02 10:29:21;;;;;;;39.33;19.03;;;6.80;99.90;;;;;;5027397;28;19982;-76
2023/03/02 10:31:54;;;;;;;35.93;18.57;;;6.80;99.90;;;;;;5025428;28;20033;-76
2023/03/02 10:34:23;;;;;;;25.67;16.97;;;7.00;99.90;;;;;;5024556;28;20035;-76
2023/03/02 10:36:48;;;;;;;33.97;18.20;;;7.10;99.90;;;;;;5020840;28;20052;-76
2023/03/02 10:39:15;;;;;;;33.23;17.80;;;7.30;99.90;;;;;;5023543;28;20040;-76
2023/03/02 10:41:50;;;;;;;29.97;18.00;;;7.50;99.90;;;;;;5023291;28;20029;-76
2023/03/02 10:44:35;;;;;;;29.88;18.88;;;7.60;99.90;;;;;;5023375;28;20060;-76
2023/03/02 10:47:01;;;;;;;29.70;16.60;;;7.70;99.90;;;;;;5030187;28;20111;-76
2023/03/02 10:49:31;;;;;;;25.47;16.73;;;7.80;99.90;;;;;;5028051;28;20029;-76
2023/03/02 10:51:59;;;;;;;29.63;17.43;;;7.80;99.90;;;;;;5029739;28;20041;-76
2023/03/02 10:54:27;;;;;;;26.50;17.13;;;7.80;99.90;;;;;;5037693;28;20021;-76
2023/03/02 10:56:55;;;;;;;29.70;17.63;;;7.90;99.90;;;;;;5037720;28;20379;-76
2023/03/02 10:59:46;;;;;;;38.80;20.93;;;8.10;99.90;;;;;;5038393;28;20167;-86
2023/03/02 11:02:23;;;;;;;28.70;17.20;;;8.40;99.90;;;;;;5034697;28;20021;-80
2023/03/02 11:04:54;;;;;;;25.33;17.37;;;8.40;99.90;;;;;;5032748;28;20101;-85
2023/03/02 11:07:23;;;;;;;34.67;18.10;;;8.50;99.90;;;;;;5033609;28;20044;-85
2023/03/02 11:10:00;;;;;;;27.73;16.73;;;8.50;99.90;;;;;;5034005;28;20099;-85
2023/03/02 11:12:27;;;;;;;25.87;16.60;;;8.70;99.90;;;;;;5032999;28;20025;-85
2023/03/02 11:15:20;;;;;;;28.23;16.93;;;8.70;99.90;;;;;;5037752;28;20025;-85
2023/03/02 11:17:49;;;;;;;23.73;15.43;;;8.90;99.90;;;;;;5030219;28;20029;-85
2023/03/02 11:20:19;;;;;;;30.30;16.57;;;9.10;99.90;;;;;;5029335;28;20033;-85
2023/03/02 11:22:48;;;;;;;26.97;16.53;;;9.30;99.90;;;;;;5032223;28;20013;-86
2023/03/02 11:25:29;;;;;;;30.70;15.50;;;9.40;99.90;;;;;;5031786;28;20025;-85
2023/03/02 11:28:01;;;;;;;27.23;16.83;;;9.50;99.90;;;;;;5032607;28;20033;-85
2023/03/02 11:30:30;;;;;;;24.92;16.63;;;9.70;99.90;;;;;;5031167;28;20038;-86
2023/03/02 11:33:18;;;;;;;27.30;16.57;;;9.80;99.90;;;;;;5034099;28;20036;-86
2023/03/02 11:35:57;;;;;;;25.33;17.08;;;9.90;99.90;;;;;;5034342;28;20102;-86
2023/03/02 11:38:31;;;;;;;23.90;14.88;;;9.90;99.90;;;;;;5036573;28;20136;-86
2023/03/02 11:41:05;;;;;;;23.95;15.18;;;9.90;99.90;;;;;;5026790;28;20040;-85
2023/03/02 11:43:31;;;;;;;23.10;16.57;;;10.10;99.90;;;;;;5032085;28;20568;-86
2023/03/02 11:46:04;;;;;;;26.07;16.03;;;10.00;99.90;;;;;;5033284;28;20189;-85
2023/03/02 11:48:45;;;;;;;23.10;15.40;;;9.90;99.90;;;;;;5029104;28;20409;-86
2023/03/02 11:51:21;;;;;;;24.20;15.50;;;9.90;99.90;;;;;;5037563;28;20025;-85
2023/03/02 11:54:03;;;;;;;25.10;15.13;;;9.90;99.90;;;;;;5034807;28;20072;-86
2023/03/02 11:56:32;;;;;;;23.63;14.20;;;9.90;99.90;;;;;;5028504;28;20513;-85
2023/03/02 11:59:03;;;;;;;24.88;15.50;;;10.00;99.90;;;;;;5031813;28;20136;-85
2023/03/02 12:01:32;;;;;;;23.90;15.18;;;10.40;99.90;;;;;;5035681;28;20036;-85
2023/03/02 12:04:24;;;;;;;24.55;14.70;;;10.70;99.90;;;;;;5033926;28;20079;-85
2023/03/02 12:06:50;;;;;;;26.55;14.38;;;10.70;99.90;;;;;;5032267;28;20029;-85
2023/03/02 12:09:22;;;;;;;24.13;14.23;;;10.90;99.90;;;;;;5033949;28;20095;-86
2023/03/02 12:11:57;;;;;;;27.02;15.50;;;11.00;99.90;;;;;;5030161;28;20029;-85
2023/03/02 12:14:35;;;;;;;21.45;14.20;;;11.30;99.90;;;;;;5035196;28;20025;-84
2023/03/02 12:17:17;;;;;;;24.17;14.85;;;11.30;99.90;;;;;;5033543;28;20029;-84
2023/03/02 12:19:44;;;;;;;21.60;15.30;;;11.30;99.90;;;;;;5030917;28;20024;-88
2023/03/02 12:22:13;;;;;;;25.75;14.90;;;11.20;99.90;;;;;;5033874;28;20025;-82
2023/03/02 12:24:42;;;;;;;22.92;13.57;;;11.40;99.90;;;;;;5033517;28;20071;-82
2023/03/02 12:27:14;;;;;;;25.25;14.00;;;11.20;99.90;;;;;;5025432;28;20032;-77
2023/03/02 12:29:45;;;;;;;18.15;12.65;;;11.40;99.90;;;;;;5033230;28;20037;-78
2023/03/02 12:32:22;;;;;;;26.02;13.88;;;11.60;99.90;;;;;;5032933;28;20025;-78
2023/03/02 12:35:07;;;;;;;20.48;13.23;;;12.00;99.90;;;;;;5034514;28;20521;-78
2023/03/02 12:37:52;;;;;;;23.45;14.48;;;11.90;99.90;;;;;;5036897;28;20058;-85